默认 日期 大小 文件数 浏览量 最新下载 xml
sources磁力链接相关资源由用户搜索指令自动获取,结果来源于网络,本站不存储任何资料,亦不承担任何责任,请于24小时内删除,搜索到509个磁力,用时1ms。
    ... Dire.flac": 51356377, "01. Les Sources.flac": 9833971, "06. On Oubliera ...
创建时间: 2018-12-08 01:23:17 大小:453.05 MB 文件数量:15 热度:9 最近下载:2024-12-09 20:43:03
    ... . Fatma, Fatma.flac": 35500311, "Aux Sources du Rai.cue": 2147, "12 ... .flac": 24855352, "Cheikha Remitti - Aux Sources du Rai.log": 14202, "Cheikha ... Remitti - Aux Sources du Rai.m3u": 405, "01 ...
创建时间: 2018-12-12 09:00:14 大小:436.35 MB 文件数量:27 热度:9 最近下载:2025-03-29 23:53:01
    ... ": 7959913, "Various - Passion Sources.cue": 1897, "Various - Passion Sources.log": 3185, "Various ...
创建时间: 2018-12-13 13:50:32 大小:287.13 MB 文件数量:12 热度:9 最近下载:2025-02-08 02:17:04
    ... Cuore.mp3": 7286656, "01 - Les Sources.mp3": 2436992, "06 - On Oubliera ...
创建时间: 2018-12-13 18:39:16 大小:98.49 MB 文件数量:14 热度:9 最近下载:2025-10-06 11:45:03
    {"1.jpg": 121192, "2.jpg": 67676, "i.txt": 949, "aucdtect.log": 2450, "08 Slinking.flac": 42985863, "01 Montelimar.flac": 36936167, "03 Thawing Out.flac": 18591221, "04 Slap and Wobble.flac": 30798529, "05 Crow and Skylark.flac": 49184103, "09 Romance Is ...
创建时间: 2018-12-16 10:37:56 大小:299.32 MB 文件数量:14 热度:9 最近下载:2025-02-18 19:42:02
    {"08 Bluff.m4a": 7605971, "10 Birth.m4a": 9670540, "04 Shelter.m4a": 7767670, "01 Flagship.m4a": 6649512, "05 Insomnia.m4a": 7995385, "03 Dream Box.m4a": 6414403, "07 CONTINUE_.m4a": 7220028, "11 (Over You).m4a": 8318383, "06 Last Theater.m4a": 12819806, " ...
创建时间: 2018-12-20 23:28:15 大小:84.34 MB 文件数量:11 热度:9 最近下载:2025-02-01 10:21:01
    {"Torrent downloaded from demonoid.pw.txt": 46, "11 Sources To Find Unlimited Royalty.tgz": 112999473, "Torrent Downloaded From ExtraTorrent.cc.txt": 352}
创建时间: 2018-12-23 00:19:57 大小:107.77 MB 文件数量:3 热度:9 最近下载:2025-02-18 07:56:02
    {"Manon Des Sources 1986 720p Bluray DD2.0 x264-BluPanther.mkv": 5144352660}
创建时间: 2018-12-28 01:42:38 大小:4.79 GB 文件数量:1 热度:9 最近下载:2025-02-03 04:02:02
    {"CD 1": {"02 - Rhyze - Free.mp3": 15294066, "06 - K.I.D - Dont Stop.mp3": 17409996, "12 - Komiko - Feel Alright.mp3": 14661922, "05 - Convertion - Lets Do It.mp3": 15829077, "08 - Rhyze - Singing & Dancing.mp3": 10864769, "07 - Vicky D - This Beat Is Mine ...
创建时间: 2018-12-29 03:50:16 大小:543.85 MB 文件数量:39 热度:9 最近下载:2025-02-19 21:59:05
    {"Dance Academy Season 2": {"Dance.Academy.S02E04.Legends.avi": 201776342, "Dance.Academy.S02E16.Origins.avi": 208350664, "Dance.Academy.S02E05.Showcase.avi": 208491220, "Dance.Academy.S02E13.Backstab.avi": 191448822, "Dance.Academy.S02E09.The.Break.avi": ...
创建时间: 2018-12-30 21:54:43 大小:11.32 GB 文件数量:65 热度:9 最近下载:2025-01-19 06:38:01
    {"WealthyD.url": 68, "Sources of Wealth.pdf": 3193853, "sources of wealth.url": 192}
创建时间: 2019-01-01 11:12:10 大小:3.05 MB 文件数量:3 热度:9 最近下载:2025-02-09 22:55:02
    {"Sources of Suffering - Fear, Greed, Guilt, Deception, Betrayal, and Revenge.pdf": 557089}
创建时间: 2019-01-15 02:14:09 大小:544.03 KB 文件数量:1 热度:9 最近下载:2025-02-01 06:41:02
    {"NFO.NFO": 10180, "sample 1.avi": 16366410, "sample 2.avi": 24617842, "Star.Wars.The.Last.Jedi.2017.CAM.NEW.SOURCES.XViD-26k.avi": 1774733076}
创建时间: 2019-01-15 06:20:23 大小:1.69 GB 文件数量:4 热度:9 最近下载:2025-01-26 17:55:04
    ... "Превью": {"ImageToday. Sources-001.jpg": 878295, "ImageToday. Sources-002.jpg": 841296 ... 735589, "ImageToday. Sources-009.jpg": 799161, "ImageToday. Sources-010.jpg": 1007291 ... , "ImageToday. Sources-011.jpg": 899720 ...
创建时间: 2019-01-19 02:27:07 大小:29.4 GB 文件数量:236 热度:9 最近下载:2025-01-22 00:02:04
    {"i.txt": 2149, "cover.jpg": 17618, "foo_dr.txt": 1274, "Kinetics.cue": 1957, "aucdtect.log": 2172, "01 - Kinetics 1.flac": 32124977, "02 - Kinetics 2.flac": 43233151, "03 - Kinetics 3.flac": 21791430, "04 - Kinetics 4.flac": 30133944, "05 - Kinetics 5. ...
创建时间: 2019-01-20 11:08:45 大小:238.73 MB 文件数量:15 热度:9 最近下载:2025-06-01 10:03:01
    {"i.txt": 1078, "back.jpg": 104066, "Agape.cue": 1131, "Agape.log": 4785, "front.jpg": 136661, "01 - A.flac": 31492108, "02 - g.flac": 51396806, "03 - a.flac": 60805197, "04 - p.flac": 35504135, "05 - e.flac": 39825669, "aucdtect.log": 1477}
创建时间: 2019-01-30 23:06:32 大小:209.12 MB 文件数量:11 热度:9 最近下载:2024-12-06 13:49:02
    {"Cover.jpg": 147307, "Ancient Rome, An Anthology of Sources - Francese, Christopher.pdf": 3437048}
创建时间: 2019-01-31 02:44:06 大小:3.42 MB 文件数量:2 热度:9 最近下载:2025-02-06 16:18:04
    {"file_id.diz": 107, "methlab.nfo": 361, "ml-0178a.zip": 5000892, "ml-0178b.zip": 2501051}
创建时间: 2019-02-02 04:42:35 大小:7.15 MB 文件数量:4 热度:9 最近下载:2025-02-01 10:55:01
    {"project_files": {"walls.jpg": 2037541, "12_end.psd": 13966725, "02_begin.psd": 11548562, "04_begin.psd": 7429483, "05_begin.psd": 9173612, "06_begin.psd": 11026754, "07_begin.psd": 12217660, "08_begin.psd": 12388305, "09_begin.psd": 12852984, "10_begin. ...
创建时间: 2019-02-16 02:37:58 大小:657.6 MB 文件数量:26 热度:9 最近下载:2025-09-20 14:02:24
    {"cover.jpg": 76592, "02 - Samadhi.mp3": 14400990, "03 - Wúwèi.mp3": 18962593, "04 - Vajrayāna.mp3": 10605858, "05 - Padmapāṇi.mp3": 22419894, "01 - Ārya Aṣṭāṅgika Mārga.mp3": 11546355}
创建时间: 2019-03-21 09:45:33 大小:74.4 MB 文件数量:6 热度:9 最近下载:2025-03-03 04:43:02